sensor_id;sensor_type;location;lat;lon;timestamp;pressure;altitude;pressure_sealevel;temperature;humidity
33554;BME280;19885;42.208;24.952;2022-12-07T03:47:03;100007.75;;;6.70;94.04
33554;BME280;19885;42.208;24.952;2022-12-07T03:49:43;100004.22;;;6.65;94.56
33554;BME280;19885;42.208;24.952;2022-12-07T03:57:15;99996.59;;;6.71;94.73
33554;BME280;19885;42.208;24.952;2022-12-07T03:59:42;100001.28;;;6.87;94.14
33554;BME280;19885;42.208;24.952;2022-12-07T04:02:11;99980.44;;;6.81;93.78
33554;BME280;19885;42.208;24.952;2022-12-07T04:04:38;99996.22;;;6.92;93.23
33554;BME280;19885;42.208;24.952;2022-12-07T04:07:04;99977.09;;;6.51;94.30
33554;BME280;19885;42.208;24.952;2022-12-07T04:09:29;99985.78;;;6.53;94.96
33554;BME280;19885;42.208;24.952;2022-12-07T04:11:55;99991.19;;;6.62;94.38
33554;BME280;19885;42.208;24.952;2022-12-07T04:14:20;99994.09;;;6.76;94.01
33554;BME280;19885;42.208;24.952;2022-12-07T04:16:51;99987.69;;;6.97;93.92
33554;BME280;19885;42.208;24.952;2022-12-07T04:19:18;99985.47;;;7.12;93.30
33554;BME280;19885;42.208;24.952;2022-12-07T04:21:45;99993.38;;;7.18;92.98
33554;BME280;19885;42.208;24.952;2022-12-07T04:24:12;99989.94;;;7.19;93.24
33554;BME280;19885;42.208;24.952;2022-12-07T04:26:38;99986.88;;;7.00;93.53
33554;BME280;19885;42.208;24.952;2022-12-07T04:29:04;99974.25;;;7.13;92.28
33554;BME280;19885;42.208;24.952;2022-12-07T04:31:29;99988.97;;;7.14;92.27
33554;BME280;19885;42.208;24.952;2022-12-07T04:33:55;99972.63;;;7.17;91.62
33554;BME280;19885;42.208;24.952;2022-12-07T04:36:20;99988.53;;;7.34;90.91
33554;BME280;19885;42.208;24.952;2022-12-07T04:38:46;99970.81;;;7.14;91.17
33554;BME280;19885;42.208;24.952;2022-12-07T04:41:12;99985.16;;;6.99;91.44
33554;BME280;19885;42.208;24.952;2022-12-07T04:43:37;99981.88;;;7.06;91.00
33554;BME280;19885;42.208;24.952;2022-12-07T04:46:03;99970.59;;;7.04;90.08
33554;BME280;19885;42.208;24.952;2022-12-07T04:48:29;99988.97;;;7.16;90.73
33554;BME280;19885;42.208;24.952;2022-12-07T04:50:55;99987.34;;;7.19;90.96
33554;BME280;19885;42.208;24.952;2022-12-07T04:53:20;99978.63;;;7.16;91.33
33554;BME280;19885;42.208;24.952;2022-12-07T04:55:46;99969.84;;;7.09;90.96
33554;BME280;19885;42.208;24.952;2022-12-07T04:58:12;99981.09;;;7.11;91.22
33554;BME280;19885;42.208;24.952;2022-12-07T05:00:39;99958.44;;;7.01;90.80
33554;BME280;19885;42.208;24.952;2022-12-07T05:03:04;99983.78;;;7.14;91.13
33554;BME280;19885;42.208;24.952;2022-12-07T05:05:30;99971.53;;;7.07;91.29
33554;BME280;19885;42.208;24.952;2022-12-07T05:07:55;99978.41;;;7.05;91.06
33554;BME280;19885;42.208;24.952;2022-12-07T05:10:21;99969.03;;;6.75;91.70
33554;BME280;19885;42.208;24.952;2022-12-07T05:12:47;99974.59;;;6.90;90.34
33554;BME280;19885;42.208;24.952;2022-12-07T05:15:14;99964.03;;;6.82;90.15
33554;BME280;19885;42.208;24.952;2022-12-07T05:17:39;99957.88;;;6.77;90.54
33554;BME280;19885;42.208;24.952;2022-12-07T05:20:06;99997.13;;;6.94;90.80
33554;BME280;19885;42.208;24.952;2022-12-07T05:22:31;99978.69;;;6.80;90.42
33554;BME280;19885;42.208;24.952;2022-12-07T05:24:57;99990.94;;;6.87;90.58
33554;BME280;19885;42.208;24.952;2022-12-07T05:27:22;99918.28;;;6.45;90.85
33554;BME280;19885;42.208;24.952;2022-12-07T05:29:50;99987.34;;;6.82;91.24
33554;BME280;19885;42.208;24.952;2022-12-07T05:32:16;99982.94;;;6.78;91.51
33554;BME280;19885;42.208;24.952;2022-12-07T05:34:41;99990.06;;;6.88;91.27
33554;BME280;19885;42.208;24.952;2022-12-07T05:37:07;99994.41;;;6.88;91.18
33554;BME280;19885;42.208;24.952;2022-12-07T05:39:32;99989.13;;;6.83;90.84
33554;BME280;19885;42.208;24.952;2022-12-07T05:41:58;99990.84;;;6.84;91.25
33554;BME280;19885;42.208;24.952;2022-12-07T05:44:44;99995.25;;;6.88;91.17
33554;BME280;19885;42.208;24.952;2022-12-07T05:47:11;99993.50;;;6.86;91.20
33554;BME280;19885;42.208;24.952;2022-12-07T05:49:37;99981.41;;;6.86;91.15
33554;BME280;19885;42.208;24.952;2022-12-07T05:52:03;99999.81;;;6.98;91.48
33554;BME280;19885;42.208;24.952;2022-12-07T05:54:28;99992.13;;;7.01;91.67
33554;BME280;19885;42.208;24.952;2022-12-07T05:56:54;99985.16;;;6.99;91.71
33554;BME280;19885;42.208;24.952;2022-12-07T05:59:20;99982.72;;;7.06;91.02
33554;BME280;19885;42.208;24.952;2022-12-07T06:01:59;99999.25;;;7.11;91.34
33554;BME280;19885;42.208;24.952;2022-12-07T06:04:28;99992.44;;;7.15;91.03
33554;BME280;19885;42.208;24.952;2022-12-07T06:06:55;99992.53;;;7.19;91.16
33554;BME280;19885;42.208;24.952;2022-12-07T06:09:21;99988.25;;;7.22;91.36
33554;BME280;19885;42.208;24.952;2022-12-07T06:11:48;99978.72;;;7.20;91.11
33554;BME280;19885;42.208;24.952;2022-12-07T06:14:32;99995.25;;;7.26;91.49
33554;BME280;19885;42.208;24.952;2022-12-07T06:16:58;99918.28;;;6.81;91.18
33554;BME280;19885;42.208;24.952;2022-12-07T06:19:23;99989.97;;;7.21;91.61
33554;BME280;19885;42.208;24.952;2022-12-07T06:21:49;99986.38;;;7.14;91.54
33554;BME280;19885;42.208;24.952;2022-12-07T06:24:15;99996.34;;;7.35;91.97
33554;BME280;19885;42.208;24.952;2022-12-07T06:26:41;99982.50;;;7.35;90.77
33554;BME280;19885;42.208;24.952;2022-12-07T06:29:07;99969.53;;;7.35;90.64
33554;BME280;19885;42.208;24.952;2022-12-07T06:31:33;99991.50;;;7.52;91.14
33554;BME280;19885;42.208;24.952;2022-12-07T06:34:03;99990.66;;;7.53;90.42
33554;BME280;19885;42.208;24.952;2022-12-07T06:36:29;99991.47;;;7.50;90.98
33554;BME280;19885;42.208;24.952;2022-12-07T06:38:55;100001.00;;;7.51;91.11
33554;BME280;19885;42.208;24.952;2022-12-07T06:41:22;100000.13;;;7.52;91.41
33554;BME280;19885;42.208;24.952;2022-12-07T07:12:32;99988.34;;;7.68;89.98
33554;BME280;19885;42.208;24.952;2022-12-07T07:14:57;100006.22;;;7.95;89.69
33554;BME280;19885;42.208;24.952;2022-12-07T07:17:23;99999.59;;;8.10;89.14
33554;BME280;19885;42.208;24.952;2022-12-07T07:19:48;99976.06;;;8.01;88.44
33554;BME280;19885;42.208;24.952;2022-12-07T07:22:13;99910.66;;;7.72;88.57
33554;BME280;19885;42.208;24.952;2022-12-07T07:24:39;99998.31;;;8.33;87.96
33554;BME280;19885;42.208;24.952;2022-12-07T07:27:04;99914.38;;;7.86;88.22
33554;BME280;19885;42.208;24.952;2022-12-07T07:29:33;99991.59;;;8.46;88.07
33554;BME280;19885;42.208;24.952;2022-12-07T07:31:59;99976.75;;;8.37;87.98
33554;BME280;19885;42.208;24.952;2022-12-07T07:34:25;99894.59;;;7.93;86.78
33554;BME280;19885;42.208;24.952;2022-12-07T07:36:50;99904.31;;;8.05;86.95
33554;BME280;19885;42.208;24.952;2022-12-07T07:39:15;99919.16;;;8.12;87.29
33554;BME280;19885;42.208;24.952;2022-12-07T07:41:41;99991.91;;;8.66;87.37
33554;BME280;19885;42.208;24.952;2022-12-07T07:44:06;99999.91;;;8.78;86.62
33554;BME280;19885;42.208;24.952;2022-12-07T07:46:32;99951.91;;;8.53;86.39
33554;BME280;19885;42.208;24.952;2022-12-07T07:48:58;99961.47;;;8.55;86.03
33554;BME280;19885;42.208;24.952;2022-12-07T07:51:23;100014.75;;;8.83;86.29
33554;BME280;19885;42.208;24.952;2022-12-07T07:53:50;99924.81;;;8.37;86.31
33554;BME280;19885;42.208;24.952;2022-12-07T07:56:16;99953.66;;;8.54;85.70
33554;BME280;19885;42.208;24.952;2022-12-07T07:58:41;99993.06;;;8.83;85.28
33554;BME280;19885;42.208;24.952;2022-12-07T08:01:07;99920.69;;;8.50;85.62
33554;BME280;19885;42.208;24.952;2022-12-07T08:03:34;100022.97;;;9.13;85.64
33554;BME280;19885;42.208;24.952;2022-12-07T08:06:02;100023.06;;;9.18;86.06
33554;BME280;19885;42.208;24.952;2022-12-07T08:08:27;99929.56;;;8.63;85.20
33554;BME280;19885;42.208;24.952;2022-12-07T08:10:53;100023.25;;;9.30;85.33
33554;BME280;19885;42.208;24.952;2022-12-07T08:13:21;99978.19;;;9.31;84.67
33554;BME280;19885;42.208;24.952;2022-12-07T08:15:47;100012.50;;;9.67;82.67
33554;BME280;19885;42.208;24.952;2022-12-07T08:18:14;99991.44;;;9.51;82.54
33554;BME280;19885;42.208;24.952;2022-12-07T08:20:41;100025.56;;;9.75;82.77
33554;BME280;19885;42.208;24.952;2022-12-07T08:23:07;99984.66;;;9.63;82.91
33554;BME280;19885;42.208;24.952;2022-12-07T08:25:34;100018.41;;;10.28;82.22
33554;BME280;19885;42.208;24.952;2022-12-07T08:28:02;99932.38;;;10.17;79.85
33554;BME280;19885;42.208;24.952;2022-12-07T08:30:28;100023.47;;;11.13;79.29
33554;BME280;19885;42.208;24.952;2022-12-07T08:32:55;100012.50;;;11.63;76.20
33554;BME280;19885;42.208;24.952;2022-12-07T08:35:21;100001.38;;;12.01;74.24
33554;BME280;19885;42.208;24.952;2022-12-07T08:37:46;99865.44;;;11.58;72.62
33554;BME280;19885;42.208;24.952;2022-12-07T08:40:12;99862.00;;;11.71;71.43
33554;BME280;19885;42.208;24.952;2022-12-07T08:42:52;100005.84;;;12.72;71.96
33554;BME280;19885;42.208;24.952;2022-12-07T08:45:19;100014.50;;;12.38;70.32
33554;BME280;19885;42.208;24.952;2022-12-07T08:47:53;99989.19;;;12.14;71.57
33554;BME280;19885;42.208;24.952;2022-12-07T08:50:21;100006.69;;;12.48;73.03
33554;BME280;19885;42.208;24.952;2022-12-07T08:52:58;99922.16;;;12.52;72.30
33554;BME280;19885;42.208;24.952;2022-12-07T08:55:25;99963.03;;;13.32;70.33
33554;BME280;19885;42.208;24.952;2022-12-07T09:19:59;99952.84;;;16.10;60.99
33554;BME280;19885;42.208;24.952;2022-12-07T09:22:29;99945.59;;;16.25;59.39
33554;BME280;19885;42.208;24.952;2022-12-07T09:24:56;99935.59;;;15.92;59.40
33554;BME280;19885;42.208;24.952;2022-12-07T09:27:22;99930.97;;;15.38;61.12
33554;BME280;19885;42.208;24.952;2022-12-07T09:32:25;99936.44;;;15.21;61.68
33554;BME280;19885;42.208;24.952;2022-12-07T09:34:50;99910.94;;;15.29;63.37
33554;BME280;19885;42.208;24.952;2022-12-07T09:37:16;99900.91;;;14.88;62.13
33554;BME280;19885;42.208;24.952;2022-12-07T09:39:41;99922.25;;;14.48;65.66
33554;BME280;19885;42.208;24.952;2022-12-07T09:42:07;99927.28;;;14.73;64.47
33554;BME280;19885;42.208;24.952;2022-12-07T09:44:35;99896.69;;;14.71;63.68
33554;BME280;19885;42.208;24.952;2022-12-07T09:47:01;99886.31;;;14.59;62.09
33554;BME280;19885;42.208;24.952;2022-12-07T09:49:29;99908.44;;;15.22;63.22
33554;BME280;19885;42.208;24.952;2022-12-07T09:54:26;99881.88;;;16.10;61.77
33554;BME280;19885;42.208;24.952;2022-12-07T09:56:53;99900.41;;;16.57;60.05
33554;BME280;19885;42.208;24.952;2022-12-07T09:59:19;99888.91;;;16.61;57.24
33554;BME280;19885;42.208;24.952;2022-12-07T10:01:48;99873.84;;;16.17;57.83
33554;BME280;19885;42.208;24.952;2022-12-07T10:04:26;99884.91;;;15.81;58.61
33554;BME280;19885;42.208;24.952;2022-12-07T10:06:51;99896.47;;;15.69;60.17
33554;BME280;19885;42.208;24.952;2022-12-07T10:09:19;99897.97;;;15.17;59.58
33554;BME280;19885;42.208;24.952;2022-12-07T10:12:18;99891.78;;;15.21;60.47
33554;BME280;19885;42.208;24.952;2022-12-07T10:15:04;99893.34;;;15.37;58.36
33554;BME280;19885;42.208;24.952;2022-12-07T10:17:37;99841.75;;;15.33;58.58
33554;BME280;19885;42.208;24.952;2022-12-07T10:22:37;99857.44;;;15.39;60.40
33554;BME280;19885;42.208;24.952;2022-12-07T10:25:18;99873.44;;;15.87;58.47
33554;BME280;19885;42.208;24.952;2022-12-07T10:27:43;99844.50;;;15.90;60.23
33554;BME280;19885;42.208;24.952;2022-12-07T10:30:14;99865.97;;;16.16;59.57
33554;BME280;19885;42.208;24.952;2022-12-07T10:32:40;99755.22;;;15.26;58.97
33554;BME280;19885;42.208;24.952;2022-12-07T10:35:22;99865.81;;;15.68;59.96
33554;BME280;19885;42.208;24.952;2022-12-07T10:37:49;99841.53;;;15.53;58.18
33554;BME280;19885;42.208;24.952;2022-12-07T10:40:32;99865.06;;;15.60;60.08
33554;BME280;19885;42.208;24.952;2022-12-07T10:53:56;99865.53;;;14.39;63.44
33554;BME280;19885;42.208;24.952;2022-12-07T11:02:10;99849.25;;;15.63;60.68
33554;BME280;19885;42.208;24.952;2022-12-07T11:10:20;99840.69;;;15.51;61.77
33554;BME280;19885;42.208;24.952;2022-12-07T11:18:29;99820.84;;;16.40;59.27
33554;BME280;19885;42.208;24.952;2022-12-07T11:21:35;99811.88;;;16.55;57.39
33554;BME280;19885;42.208;24.952;2022-12-07T11:24:16;99798.31;;;16.74;58.45
33554;BME280;19885;42.208;24.952;2022-12-07T11:27:09;99789.00;;;16.58;56.34
33554;BME280;19885;42.208;24.952;2022-12-07T11:32:53;99814.66;;;15.94;57.76
33554;BME280;19885;42.208;24.952;2022-12-07T11:41:01;99797.66;;;16.13;58.16
33554;BME280;19885;42.208;24.952;2022-12-07T11:46:40;99738.84;;;15.69;59.97
33554;BME280;19885;42.208;24.952;2022-12-07T11:49:19;99778.38;;;16.14;58.90
33554;BME280;19885;42.208;24.952;2022-12-07T11:51:49;99755.41;;;15.73;58.79
33554;BME280;19885;42.208;24.952;2022-12-07T11:54:27;99698.34;;;15.26;57.77
33554;BME280;19885;42.208;24.952;2022-12-07T11:56:56;99783.81;;;14.77;60.71
33554;BME280;19885;42.208;24.952;2022-12-07T11:59:34;99767.09;;;14.03;60.53
33554;BME280;19885;42.208;24.952;2022-12-07T12:02:41;99785.00;;;13.47;64.48
33554;BME280;19885;42.208;24.952;2022-12-07T12:05:21;99781.53;;;13.42;64.49
33554;BME280;19885;42.208;24.952;2022-12-07T12:08:26;99756.31;;;13.26;64.13
33554;BME280;19885;42.208;24.952;2022-12-07T12:11:00;99740.41;;;13.54;64.90
33554;BME280;19885;42.208;24.952;2022-12-07T12:13:46;99761.31;;;13.62;64.43
33554;BME280;19885;42.208;24.952;2022-12-07T12:18:53;99753.31;;;13.77;63.86
33554;BME280;19885;42.208;24.952;2022-12-07T12:21:28;99735.09;;;13.70;64.08
33554;BME280;19885;42.208;24.952;2022-12-07T12:26:31;99760.75;;;14.28;64.88
33554;BME280;19885;42.208;24.952;2022-12-07T12:29:06;99758.28;;;14.09;62.93
33554;BME280;19885;42.208;24.952;2022-12-07T12:31:47;99623.78;;;13.22;64.99
33554;BME280;19885;42.208;24.952;2022-12-07T12:34:32;99762.88;;;13.87;62.48
33554;BME280;19885;42.208;24.952;2022-12-07T12:36:58;99737.59;;;13.83;63.11
33554;BME280;19885;42.208;24.952;2022-12-07T12:39:24;99752.56;;;13.65;63.92
33554;BME280;19885;42.208;24.952;2022-12-07T12:41:55;99765.13;;;13.10;64.99
33554;BME280;19885;42.208;24.952;2022-12-07T12:46:56;99765.88;;;13.33;65.32
33554;BME280;19885;42.208;24.952;2022-12-07T12:52:49;99752.94;;;13.00;66.03
33554;BME280;19885;42.208;24.952;2022-12-07T12:57:28;99748.59;;;12.93;67.40
33554;BME280;19885;42.208;24.952;2022-12-07T13:02:23;99719.97;;;12.67;67.23
33554;BME280;19885;42.208;24.952;2022-12-07T13:04:58;99744.38;;;12.69;67.20
33554;BME280;19885;42.208;24.952;2022-12-07T13:10:39;99738.94;;;13.11;68.13
33554;BME280;19885;42.208;24.952;2022-12-07T13:13:28;99744.00;;;13.38;66.56
33554;BME280;19885;42.208;24.952;2022-12-07T13:18:35;99704.72;;;13.44;66.88
33554;BME280;19885;42.208;24.952;2022-12-07T13:23:36;99739.63;;;13.40;66.95
33554;BME280;19885;42.208;24.952;2022-12-07T13:31:35;99672.94;;;12.59;68.09
33554;BME280;19885;42.208;24.952;2022-12-07T13:34:03;99712.88;;;12.88;68.08
33554;BME280;19885;42.208;24.952;2022-12-07T13:36:33;99744.31;;;12.78;68.32
33554;BME280;19885;42.208;24.952;2022-12-07T13:41:42;99670.53;;;12.02;69.04
33554;BME280;19885;42.208;24.952;2022-12-07T13:44:13;99612.31;;;11.48;70.09
33554;BME280;19885;42.208;24.952;2022-12-07T13:47:00;99721.88;;;12.20;70.79
33554;BME280;19885;42.208;24.952;2022-12-07T13:49:30;99734.84;;;12.45;71.16
33554;BME280;19885;42.208;24.952;2022-12-07T13:52:14;99725.28;;;12.38;71.25
33554;BME280;19885;42.208;24.952;2022-12-07T13:57:33;99720.00;;;12.58;70.90
33554;BME280;19885;42.208;24.952;2022-12-07T14:00:03;99662.59;;;12.35;70.20
33554;BME280;19885;42.208;24.952;2022-12-07T14:02:32;99657.34;;;12.34;71.08
33554;BME280;19885;42.208;24.952;2022-12-07T14:07:49;99719.97;;;12.68;70.60
33554;BME280;19885;42.208;24.952;2022-12-07T14:12:53;99726.00;;;12.79;70.90
33554;BME280;19885;42.208;24.952;2022-12-07T14:15:22;99659.94;;;12.41;71.92
33554;BME280;19885;42.208;24.952;2022-12-07T14:17:52;99750.41;;;12.81;71.69
33554;BME280;19885;42.208;24.952;2022-12-07T14:20:35;99747.81;;;12.77;71.96
33554;BME280;19885;42.208;24.952;2022-12-07T14:23:06;99746.16;;;12.52;72.04
33554;BME280;19885;42.208;24.952;2022-12-07T14:25:51;99735.78;;;12.26;72.14
33554;BME280;19885;42.208;24.952;2022-12-07T14:28:28;99667.06;;;11.94;73.30
33554;BME280;19885;42.208;24.952;2022-12-07T14:30:54;99740.06;;;12.45;73.98
33554;BME280;19885;42.208;24.952;2022-12-07T14:33:21;99718.41;;;12.05;73.11
33554;BME280;19885;42.208;24.952;2022-12-07T14:35:47;99727.16;;;11.92;73.67
33554;BME280;19885;42.208;24.952;2022-12-07T14:38:12;99728.84;;;12.08;74.06
33554;BME280;19885;42.208;24.952;2022-12-07T14:40:38;99744.50;;;12.19;73.74
33554;BME280;19885;42.208;24.952;2022-12-07T14:43:14;99727.09;;;12.12;73.88
33554;BME280;19885;42.208;24.952;2022-12-07T14:45:42;99744.50;;;12.21;74.82
33554;BME280;19885;42.208;24.952;2022-12-07T14:48:11;99746.25;;;12.15;75.51
33554;BME280;19885;42.208;24.952;2022-12-07T14:50:49;99748.88;;;12.08;75.47
33554;BME280;19885;42.208;24.952;2022-12-07T14:53:17;99740.19;;;11.94;75.87
33554;BME280;19885;42.208;24.952;2022-12-07T14:55:43;99654.91;;;11.32;75.90
33554;BME280;19885;42.208;24.952;2022-12-07T14:58:17;99734.94;;;11.67;76.17
33554;BME280;19885;42.208;24.952;2022-12-07T15:00:44;99751.50;;;11.75;76.76
33554;BME280;19885;42.208;24.952;2022-12-07T15:03:10;99741.91;;;11.60;77.85
33554;BME280;19885;42.208;24.952;2022-12-07T15:05:36;99714.06;;;11.47;77.80
33554;BME280;19885;42.208;24.952;2022-12-07T15:08:02;99674.03;;;11.10;78.79
33554;BME280;19885;42.208;24.952;2022-12-07T15:10:31;99733.16;;;11.38;78.45
33554;BME280;19885;42.208;24.952;2022-12-07T15:12:58;99739.25;;;11.27;78.26
33554;BME280;19885;42.208;24.952;2022-12-07T15:15:44;99745.34;;;11.21;77.99
33554;BME280;19885;42.208;24.952;2022-12-07T15:18:10;99644.41;;;10.67;79.02
33554;BME280;19885;42.208;24.952;2022-12-07T15:59:23;99779.88;;;9.49;83.43
33554;BME280;19885;42.208;24.952;2022-12-07T16:01:50;99763.41;;;9.48;83.92
33554;BME280;19885;42.208;24.952;2022-12-07T16:04:15;99737.31;;;9.39;84.86
33554;BME280;19885;42.208;24.952;2022-12-07T16:06:41;99739.78;;;9.27;84.45
33554;BME280;19885;42.208;24.952;2022-12-07T16:09:06;99785.16;;;9.58;84.51
33554;BME280;19885;42.208;24.952;2022-12-07T16:11:32;99626.50;;;8.60;84.75
33554;BME280;19885;42.208;24.952;2022-12-07T16:13:58;99707.56;;;9.11;84.01
33554;BME280;19885;42.208;24.952;2022-12-07T16:16:23;99786.81;;;9.50;84.81
33554;BME280;19885;42.208;24.952;2022-12-07T16:18:50;99686.59;;;8.92;85.21
33554;BME280;19885;42.208;24.952;2022-12-07T16:21:16;99762.38;;;9.32;84.80
33554;BME280;19885;42.208;24.952;2022-12-07T16:23:42;99774.59;;;9.38;84.40
33554;BME280;19885;42.208;24.952;2022-12-07T16:28:49;99794.56;;;9.42;84.67
33554;BME280;19885;42.208;24.952;2022-12-07T16:31:16;99820.56;;;9.42;84.10
33554;BME280;19885;42.208;24.952;2022-12-07T16:33:43;99719.38;;;8.81;84.28
33554;BME280;19885;42.208;24.952;2022-12-07T16:36:10;99800.44;;;9.26;85.09
33554;BME280;19885;42.208;24.952;2022-12-07T16:38:36;99799.56;;;9.24;85.14
33554;BME280;19885;42.208;24.952;2022-12-07T16:41:02;99780.38;;;9.13;84.63
33554;BME280;19885;42.208;24.952;2022-12-07T16:43:28;99806.53;;;9.28;85.28
33554;BME280;19885;42.208;24.952;2022-12-07T16:45:53;99657.41;;;8.37;85.28
33554;BME280;19885;42.208;24.952;2022-12-07T16:48:19;99804.72;;;9.19;85.48
33554;BME280;19885;42.208;24.952;2022-12-07T16:50:45;99786.38;;;9.07;86.89
33554;BME280;19885;42.208;24.952;2022-12-07T16:53:11;99814.34;;;9.29;86.10
33554;BME280;19885;42.208;24.952;2022-12-07T16:55:41;99807.41;;;9.28;85.17
33554;BME280;19885;42.208;24.952;2022-12-07T16:58:08;99720.22;;;8.77;85.28
33554;BME280;19885;42.208;24.952;2022-12-07T17:00:33;99649.63;;;8.37;86.04
33554;BME280;19885;42.208;24.952;2022-12-07T17:02:59;99806.50;;;9.23;86.06
33554;BME280;19885;42.208;24.952;2022-12-07T17:05:25;99829.09;;;9.32;84.71
33554;BME280;19885;42.208;24.952;2022-12-07T17:07:53;99782.84;;;9.01;85.12
33554;BME280;19885;42.208;24.952;2022-12-07T17:10:19;99829.81;;;9.17;85.02
33554;BME280;19885;42.208;24.952;2022-12-07T17:12:45;99820.94;;;9.02;85.53
33554;BME280;19885;42.208;24.952;2022-12-07T17:15:10;99806.91;;;8.85;84.72
33554;BME280;19885;42.208;24.952;2022-12-07T17:17:44;99836.38;;;8.88;84.37
33554;BME280;19885;42.208;24.952;2022-12-07T17:20:10;99826.66;;;8.74;84.72
33554;BME280;19885;42.208;24.952;2022-12-07T17:22:35;99813.50;;;8.61;85.22
33554;BME280;19885;42.208;24.952;2022-12-07T17:25:01;99823.88;;;8.60;86.18
33554;BME280;19885;42.208;24.952;2022-12-07T17:27:27;99817.69;;;8.52;86.42
33554;BME280;19885;42.208;24.952;2022-12-07T17:29:53;99813.38;;;8.49;86.41
33554;BME280;19885;42.208;24.952;2022-12-07T17:32:18;99810.66;;;8.43;86.86
33554;BME280;19885;42.208;24.952;2022-12-07T17:39:57;99822.00;;;8.50;87.87
33554;BME280;19885;42.208;24.952;2022-12-07T17:42:25;99830.75;;;8.56;87.62
33554;BME280;19885;42.208;24.952;2022-12-07T17:45:11;99821.22;;;8.55;87.84
33554;BME280;19885;42.208;24.952;2022-12-07T17:47:37;99814.97;;;8.43;86.84
33554;BME280;19885;42.208;24.952;2022-12-07T17:50:04;99787.00;;;8.24;86.70
33554;BME280;19885;42.208;24.952;2022-12-07T17:52:30;99838.31;;;8.41;86.12
33554;BME280;19885;42.208;24.952;2022-12-07T17:55:14;99835.50;;;8.26;86.24
33554;BME280;19885;42.208;24.952;2022-12-07T17:57:40;99835.34;;;8.19;87.67
33554;BME280;19885;42.208;24.952;2022-12-07T18:00:06;99826.72;;;8.20;88.59
33554;BME280;19885;42.208;24.952;2022-12-07T18:02:32;99802.31;;;8.09;89.25
33554;BME280;19885;42.208;24.952;2022-12-07T18:04:58;99831.22;;;8.28;89.33
33554;BME280;19885;42.208;24.952;2022-12-07T18:07:24;99827.75;;;8.29;89.44
33554;BME280;19885;42.208;24.952;2022-12-07T18:09:49;99787.66;;;8.11;89.15
33554;BME280;19885;42.208;24.952;2022-12-07T18:12:14;99822.63;;;8.32;88.88
33554;BME280;19885;42.208;24.952;2022-12-07T18:14:40;99814.78;;;8.29;88.60
33554;BME280;19885;42.208;24.952;2022-12-07T18:17:06;99809.41;;;8.19;88.14
33554;BME280;19885;42.208;24.952;2022-12-07T18:19:31;99817.94;;;8.12;87.41
33554;BME280;19885;42.208;24.952;2022-12-07T18:21:57;99804.75;;;7.98;87.57
33554;BME280;19885;42.208;24.952;2022-12-07T18:24:23;99837.78;;;8.08;88.68
33554;BME280;19885;42.208;24.952;2022-12-07T18:26:48;99827.97;;;7.90;89.30
33554;BME280;19885;42.208;24.952;2022-12-07T18:29:16;99844.56;;;8.00;89.16
33554;BME280;19885;42.208;24.952;2022-12-07T18:31:43;99833.22;;;7.93;88.61
33554;BME280;19885;42.208;24.952;2022-12-07T18:34:12;99834.81;;;7.85;88.58
33554;BME280;19885;42.208;24.952;2022-12-07T18:36:41;99840.63;;;7.72;88.89
33554;BME280;19885;42.208;24.952;2022-12-07T18:39:10;99811.78;;;7.54;88.72
33554;BME280;19885;42.208;24.952;2022-12-07T18:41:37;99827.56;;;7.66;88.90
33554;BME280;19885;42.208;24.952;2022-12-07T18:44:04;99771.66;;;7.34;88.84
33554;BME280;19885;42.208;24.952;2022-12-07T18:46:30;99837.13;;;7.70;88.99
33554;BME280;19885;42.208;24.952;2022-12-07T18:48:55;99846.34;;;7.55;88.41
33554;BME280;19885;42.208;24.952;2022-12-07T18:51:25;99723.31;;;6.88;89.11
33554;BME280;19885;42.208;24.952;2022-12-07T18:53:51;99835.09;;;7.54;88.81
33554;BME280;19885;42.208;24.952;2022-12-07T18:56:24;99833.28;;;7.49;88.57
33554;BME280;19885;42.208;24.952;2022-12-07T18:58:55;99780.88;;;7.18;88.21
33554;BME280;19885;42.208;24.952;2022-12-07T19:01:40;99837.44;;;7.39;88.19
33554;BME280;19885;42.208;24.952;2022-12-07T19:04:06;99858.34;;;7.50;88.46
33554;BME280;19885;42.208;24.952;2022-12-07T19:06:33;99814.72;;;7.26;88.60
33554;BME280;19885;42.208;24.952;2022-12-07T19:08:59;99819.09;;;7.29;88.75
33554;BME280;19885;42.208;24.952;2022-12-07T19:11:29;99840.97;;;7.43;88.23
33554;BME280;19885;42.208;24.952;2022-12-07T19:14:25;99732.47;;;6.70;88.85
33554;BME280;19885;42.208;24.952;2022-12-07T19:16:53;99831.31;;;7.36;89.23
33554;BME280;19885;42.208;24.952;2022-12-07T19:19:20;99832.09;;;7.32;89.19
33554;BME280;19885;42.208;24.952;2022-12-07T19:21:49;99830.44;;;7.34;88.80
33554;BME280;19885;42.208;24.952;2022-12-07T19:24:15;99823.50;;;7.33;88.77
33554;BME280;19885;42.208;24.952;2022-12-07T19:26:41;99840.91;;;7.40;89.37
33554;BME280;19885;42.208;24.952;2022-12-07T19:29:06;99812.06;;;7.23;88.98
33554;BME280;19885;42.208;24.952;2022-12-07T19:31:32;99834.50;;;7.21;88.29
33554;BME280;19885;42.208;24.952;2022-12-07T19:33:58;99838.88;;;7.25;88.78
33554;BME280;19885;42.208;24.952;2022-12-07T19:36:23;99804.00;;;7.08;88.39
33554;BME280;19885;42.208;24.952;2022-12-07T19:38:49;99797.84;;;7.03;88.84
33554;BME280;19885;42.208;24.952;2022-12-07T19:41:16;99853.78;;;7.37;89.54
33554;BME280;19885;42.208;24.952;2022-12-07T19:44:02;99765.41;;;6.77;89.05
33554;BME280;19885;42.208;24.952;2022-12-07T19:46:28;99848.44;;;7.28;89.17
33554;BME280;19885;42.208;24.952;2022-12-07T19:48:55;99830.84;;;7.11;88.34
33554;BME280;19885;42.208;24.952;2022-12-07T19:51:22;99862.25;;;7.27;88.79
33554;BME280;19885;42.208;24.952;2022-12-07T19:53:48;99835.13;;;7.11;88.90
33554;BME280;19885;42.208;24.952;2022-12-07T19:56:14;99839.31;;;7.04;89.14
33554;BME280;19885;42.208;24.952;2022-12-07T19:58:41;99856.94;;;7.20;89.24
33554;BME280;19885;42.208;24.952;2022-12-07T20:01:06;99813.38;;;7.01;89.19